Airfield :
LOGIN :

Register | Disclaimer

   EN    FR    IT 

 










Legend :    VFR   Marginal VFR   IFR   Intensive IFR   Very Intensive IFR
Visi :
Ceiling :
>= 8 km
>= 3000ft
5 to 8 km
1000 to 3000 ft
1500m to 5 km
500 to 1000 ft
800 to 1500m
200 to 500 ft
< 800m
< 200 ft
Symbols :   Thunderstorms  Fog  Heavy snow  Heavy precipitations  Wind > 20 kt
SIGMETs :     Misc.  Thunderstorms  Icing  Turbulence  Mountain Waves  Volcanic Ashes






- Airport Elevation : 1234 ft
- IATA code : LUX


ELLX - Luxembourg Findel

CURRENT METAR :
  • 050050Z 28004KT CAVOK 12/07 Q1018 NOSIG

EXPIRED METARs :
  • 050020Z AUTO VRB02KT 9999 NCD 14/07 Q1018 NOSIG
  • 042350Z 03003KT CAVOK 15/07 Q1018 NOSIG
  • 042320Z 02003KT CAVOK 15/07 Q1018 NOSIG
  • 042250Z 02004KT CAVOK 16/07 Q1018 NOSIG
  • 042220Z 04004KT CAVOK 16/06 Q1018 NOSIG

TAF TAF ELLX
Valid from the 05 at 00:00 until the 06 at 06:00 UTC


042300Z 0500/0606 31007KT CAVOK
TEMPO 0500/0506 VRB02KT
BECMG 0506/0509 15005KT
ATIS : +352 4798 27300
Met : +352 4798 27010 / 27050



MET'MAP, your aeronautical weather chart ! - Copyright ORBIFLY December 2007 - Disclaimer

ORBIFLY MET'MAP TEAM :

Programming & Development : Alexandra Zaïnal
Concept & original design : Baudouin d'Aumeries
Assistance for programming : Marc-Olivier Méhu
Technical & hardware support : Manuel Goepfert

Contact : metmap@orbifly.com




SOURCES & CREDITS :

   NOAA